createdAt,value
2022-10-31T00:01:23.356Z,3.97
2022-10-31T00:03:51.073Z,4.38
2022-10-31T00:06:20.169Z,4.80
2022-10-31T00:08:48.032Z,4.22
2022-10-31T00:11:15.939Z,4.13
2022-10-31T00:13:43.913Z,4.30
2022-10-31T00:16:18.330Z,5.10
2022-10-31T00:18:46.502Z,4.50
2022-10-31T00:21:14.421Z,4.75
2022-10-31T00:23:43.823Z,4.55
2022-10-31T00:26:11.736Z,5.38
2022-10-31T00:28:39.602Z,4.85
2022-10-31T00:31:08.509Z,4.95
2022-10-31T00:33:37.688Z,5.20
2022-10-31T00:36:06.478Z,4.95
2022-10-31T00:38:34.440Z,4.70
2022-10-31T00:41:03.835Z,4.88
2022-10-31T00:43:31.662Z,4.80
2022-10-31T00:45:59.783Z,4.88
2022-10-31T00:48:27.601Z,4.80
2022-10-31T00:50:55.478Z,4.90
2022-10-31T00:53:24.339Z,4.93
2022-10-31T00:55:52.300Z,4.60
2022-10-31T00:58:22.023Z,5.05
2022-10-31T01:00:56.199Z,5.05
2022-10-31T01:03:24.869Z,4.70
2022-10-31T01:06:00.516Z,5.47
2022-10-31T01:08:28.852Z,5.22
2022-10-31T01:11:00.649Z,5.55
2022-10-31T01:13:29.855Z,4.88
2022-10-31T01:15:57.970Z,5.30
2022-10-31T01:18:27.166Z,5.20
2022-10-31T01:21:02.096Z,5.07
2022-10-31T01:23:30.257Z,4.63
2022-10-31T01:26:02.285Z,4.65
2022-10-31T01:28:31.904Z,4.47
2022-10-31T01:31:03.746Z,5.03
2022-10-31T01:33:31.767Z,4.88
2022-10-31T01:35:59.736Z,4.70
2022-10-31T01:38:27.856Z,5.00
2022-10-31T01:40:55.722Z,4.60
2022-10-31T01:43:23.634Z,4.45
2022-10-31T01:45:56.207Z,5.07
2022-10-31T01:48:27.036Z,5.38
2022-10-31T01:50:56.747Z,4.82
2022-10-31T01:53:26.984Z,4.78
2022-10-31T01:55:55.056Z,5.55
2022-10-31T01:58:25.393Z,5.22
2022-10-31T02:01:00.515Z,4.80
2022-10-31T02:03:31.501Z,4.85
2022-10-31T02:05:59.873Z,5.45
2022-10-31T02:08:28.862Z,4.68
2022-10-31T02:10:58.252Z,4.55
2022-10-31T02:13:26.898Z,5.10
2022-10-31T02:15:57.516Z,5.40
2022-10-31T02:18:26.442Z,4.47
2022-10-31T02:21:00.473Z,4.88
2022-10-31T02:23:37.438Z,4.75
2022-10-31T02:26:24.105Z,5.93
2022-10-31T02:29:03.850Z,5.10
2022-10-31T02:31:36.161Z,4.75
2022-10-31T02:34:07.800Z,4.45
2022-10-31T02:36:41.264Z,4.18
2022-10-31T02:39:12.775Z,5.38
2022-10-31T02:41:48.419Z,5.30
2022-10-31T02:44:18.639Z,5.13
2022-10-31T02:46:50.789Z,5.35
2022-10-31T02:49:23.781Z,5.07
2022-10-31T02:51:52.472Z,5.00
2022-10-31T02:54:21.572Z,4.78
2022-10-31T02:56:56.196Z,5.38
2022-10-31T02:59:24.438Z,5.93
2022-10-31T03:01:59.989Z,5.38
2022-10-31T03:04:34.328Z,4.60
2022-10-31T03:07:05.563Z,5.78
2022-10-31T03:09:36.193Z,4.97
2022-10-31T03:12:09.227Z,4.70
2022-10-31T03:14:41.483Z,5.20
2022-10-31T03:17:15.055Z,4.60
2022-10-31T03:19:45.115Z,5.60
2022-10-31T03:22:17.896Z,5.05
2022-10-31T03:24:46.887Z,5.35
2022-10-31T03:27:17.479Z,5.10
2022-10-31T03:29:45.836Z,5.00
2022-10-31T03:32:17.094Z,4.78
2022-10-31T03:34:47.521Z,4.78
2022-10-31T03:37:18.871Z,4.40
2022-10-31T03:39:48.726Z,4.13
2022-10-31T03:42:17.719Z,4.57
2022-10-31T03:44:48.337Z,4.93
2022-10-31T03:47:17.893Z,5.38
2022-10-31T03:49:50.213Z,5.03
2022-10-31T03:52:21.569Z,4.57
2022-10-31T03:54:53.838Z,5.32
2022-10-31T03:57:23.857Z,4.60
2022-10-31T03:59:54.073Z,4.85
2022-10-31T04:02:24.952Z,4.90
2022-10-31T04:04:53.175Z,4.90
2022-10-31T04:07:21.761Z,4.68
2022-10-31T04:09:52.497Z,5.10
2022-10-31T04:12:22.725Z,4.60
2022-10-31T04:14:51.572Z,4.88
2022-10-31T04:17:20.856Z,4.57
2022-10-31T04:19:50.256Z,5.25
2022-10-31T04:22:18.120Z,4.43
2022-10-31T04:24:45.985Z,4.70
2022-10-31T04:27:16.640Z,4.85
2022-10-31T04:29:46.924Z,4.95
2022-10-31T04:32:18.698Z,4.25
2022-10-31T04:34:46.513Z,5.10
2022-10-31T04:37:15.780Z,4.80
2022-10-31T04:39:43.570Z,4.82
2022-10-31T04:42:31.067Z,4.93
2022-10-31T04:45:01.113Z,4.75
2022-10-31T04:47:29.080Z,4.88
2022-10-31T04:49:56.994Z,5.07
2022-10-31T04:52:26.494Z,4.75
2022-10-31T04:54:55.133Z,4.88
2022-10-31T04:57:55.039Z,4.18
2022-10-31T05:00:25.311Z,4.68
2022-10-31T05:02:53.854Z,4.53
2022-10-31T05:05:22.598Z,4.82
2022-10-31T05:07:52.396Z,4.25
2022-10-31T05:10:23.285Z,4.55
2022-10-31T05:12:52.624Z,5.03
2022-10-31T05:15:43.456Z,4.15
2022-10-31T05:18:13.808Z,4.78
2022-10-31T05:21:10.854Z,5.28
2022-10-31T05:23:47.603Z,4.97
2022-10-31T05:26:16.829Z,4.40
2022-10-31T05:28:44.644Z,5.25
2022-10-31T05:31:12.989Z,4.68
2022-10-31T05:33:40.875Z,4.68
2022-10-31T05:36:31.435Z,4.53
2022-10-31T05:39:03.033Z,4.60
2022-10-31T05:41:43.856Z,4.97
2022-10-31T05:44:23.392Z,4.47
2022-10-31T05:46:58.483Z,4.32
2022-10-31T05:49:31.994Z,5.00
2022-10-31T05:52:00.043Z,4.10
2022-10-31T05:54:38.558Z,4.57
2022-10-31T05:57:06.476Z,4.45
2022-10-31T05:59:34.341Z,4.47
2022-10-31T06:02:03.168Z,4.25
2022-10-31T06:04:49.942Z,5.25
2022-10-31T06:07:18.238Z,4.00
2022-10-31T06:09:47.511Z,4.70
2022-10-31T06:12:16.382Z,4.35
2022-10-31T06:15:02.491Z,4.53
2022-10-31T06:17:30.758Z,4.03
2022-10-31T06:20:18.693Z,4.53
2022-10-31T06:22:56.392Z,3.92
2022-10-31T06:25:26.262Z,4.75
2022-10-31T06:27:54.646Z,4.72
2022-10-31T06:30:25.270Z,4.00
2022-10-31T06:32:53.285Z,4.57
2022-10-31T06:35:21.674Z,4.40
2022-10-31T06:37:56.027Z,5.00
2022-10-31T06:40:38.697Z,4.53
2022-10-31T06:43:28.105Z,4.75
2022-10-31T06:46:14.884Z,4.90
2022-10-31T06:49:01.367Z,5.28
2022-10-31T06:51:52.838Z,4.60
2022-10-31T06:54:20.907Z,5.15
2022-10-31T06:56:50.134Z,5.10
2022-10-31T06:59:18.791Z,4.72
2022-10-31T07:02:05.399Z,4.75
2022-10-31T07:04:34.949Z,4.53
2022-10-31T07:07:02.888Z,4.47
2022-10-31T07:09:31.480Z,4.38
2022-10-31T07:12:04.893Z,4.88
2022-10-31T07:14:36.430Z,4.70
2022-10-31T07:17:04.401Z,1.50
2022-10-31T07:19:39.293Z,1.98
2022-10-31T07:22:07.520Z,2.08
2022-10-31T07:24:36.505Z,1.88
2022-10-31T07:27:40.123Z,1.95
2022-10-31T07:30:15.149Z,2.42
2022-10-31T07:32:44.078Z,2.28
2022-10-31T07:35:15.736Z,2.28
2022-10-31T07:37:55.641Z,2.17
2022-10-31T07:40:24.514Z,2.33
2022-10-31T07:42:55.027Z,2.10
2022-10-31T07:45:51.642Z,2.63
2022-10-31T07:48:37.693Z,2.30
2022-10-31T07:51:25.019Z,2.13
2022-10-31T07:54:13.243Z,2.78
2022-10-31T07:56:41.314Z,2.63
2022-10-31T07:59:10.610Z,2.30
